createdAt,value
2022-09-02T00:00:14.206Z,17.90
2022-09-02T00:01:24.436Z,17.90
2022-09-02T00:02:27.177Z,17.80
2022-09-02T00:03:34.548Z,17.80
2022-09-02T00:04:38.250Z,17.80
2022-09-02T00:05:41.009Z,17.80
2022-09-02T00:06:46.721Z,17.80
2022-09-02T00:07:49.142Z,17.80
2022-09-02T00:08:54.161Z,17.70
2022-09-02T00:09:56.992Z,17.80
2022-09-02T00:11:03.550Z,17.70
2022-09-02T00:12:09.696Z,17.70
2022-09-02T00:13:16.889Z,17.70
2022-09-02T00:14:24.187Z,17.70
2022-09-02T00:15:27.952Z,17.70
2022-09-02T00:16:32.016Z,17.60
2022-09-02T00:17:35.540Z,17.60
2022-09-02T00:18:38.343Z,17.60
2022-09-02T00:19:41.874Z,17.60
2022-09-02T00:20:47.851Z,17.60
2022-09-02T00:21:52.715Z,17.50
2022-09-02T00:22:55.375Z,17.50
2022-09-02T00:24:00.502Z,17.50
2022-09-02T00:25:03.164Z,17.50
2022-09-02T00:26:10.033Z,17.50
2022-09-02T00:27:12.640Z,17.40
2022-09-02T00:28:17.387Z,17.40
2022-09-02T00:29:23.362Z,17.40
2022-09-02T00:30:26.987Z,17.40
2022-09-02T00:31:29.560Z,17.40
2022-09-02T00:32:33.356Z,17.40
2022-09-02T00:33:35.973Z,17.40
2022-09-02T00:34:39.677Z,17.40
2022-09-02T00:35:42.550Z,17.40
2022-09-02T00:36:46.228Z,17.40
2022-09-02T00:37:48.827Z,17.30
2022-09-02T00:38:53.204Z,17.30
2022-09-02T00:39:58.241Z,17.30
2022-09-02T00:41:04.576Z,17.30
2022-09-02T00:42:08.175Z,17.30
2022-09-02T00:43:11.784Z,17.30
2022-09-02T00:44:16.923Z,17.20
2022-09-02T00:45:22.759Z,17.20
2022-09-02T00:46:31.475Z,17.20
2022-09-02T00:47:36.867Z,17.20
2022-09-02T00:48:44.149Z,17.20
2022-09-02T00:49:52.565Z,17.20
2022-09-02T00:50:57.612Z,17.20
2022-09-02T00:52:05.951Z,17.20
2022-09-02T00:53:12.576Z,17.10
2022-09-02T00:54:18.775Z,17.10
2022-09-02T00:55:25.995Z,17.10
2022-09-02T00:56:53.894Z,17.10
2022-09-02T00:58:18.855Z,17.10
2022-09-02T00:59:25.961Z,17.10
2022-09-02T01:00:34.950Z,17.00
2022-09-02T01:01:39.786Z,17.00
2022-09-02T01:02:44.652Z,17.00
2022-09-02T01:03:47.144Z,17.00
2022-09-02T01:04:50.865Z,17.00
2022-09-02T01:05:56.030Z,17.00
2022-09-02T01:06:59.599Z,17.00
2022-09-02T01:08:06.489Z,17.00
2022-09-02T01:09:15.724Z,17.00
2022-09-02T01:10:23.739Z,16.90
2022-09-02T01:11:39.026Z,16.90
2022-09-02T01:12:42.880Z,16.90
2022-09-02T01:13:46.457Z,16.90
2022-09-02T01:14:49.245Z,16.90
2022-09-02T01:16:00.268Z,16.90
2022-09-02T01:17:03.532Z,16.90
2022-09-02T01:18:10.817Z,16.90
2022-09-02T01:19:25.395Z,16.80
2022-09-02T01:20:28.096Z,16.80
2022-09-02T01:21:31.734Z,16.80
2022-09-02T01:22:35.751Z,16.80
2022-09-02T01:23:39.452Z,16.80
2022-09-02T01:24:42.598Z,16.80
2022-09-02T01:25:47.114Z,16.80
2022-09-02T01:26:52.490Z,16.80
2022-09-02T01:28:02.593Z,16.80
2022-09-02T01:29:05.126Z,16.70
2022-09-02T01:30:12.330Z,16.70
2022-09-02T01:31:15.082Z,16.70
2022-09-02T01:32:21.067Z,16.70
2022-09-02T01:33:25.400Z,16.60
2022-09-02T01:34:30.260Z,16.60
2022-09-02T01:35:32.836Z,16.60
2022-09-02T01:36:40.416Z,16.60
2022-09-02T01:37:50.681Z,16.60
2022-09-02T01:38:59.447Z,16.60
2022-09-02T01:40:03.227Z,16.60
2022-09-02T01:41:07.614Z,16.50
2022-09-02T01:42:10.341Z,16.50
2022-09-02T01:43:21.366Z,16.50
2022-09-02T01:44:27.655Z,16.50
2022-09-02T01:45:31.753Z,16.50
2022-09-02T01:46:36.465Z,16.50
2022-09-02T01:47:40.415Z,16.50
2022-09-02T01:48:43.018Z,16.50
2022-09-02T01:49:46.854Z,16.40
2022-09-02T01:50:53.619Z,16.40
2022-09-02T01:51:57.425Z,16.40
2022-09-02T01:53:03.827Z,16.40
2022-09-02T01:54:09.100Z,16.40
2022-09-02T01:55:11.846Z,16.30
2022-09-02T01:56:16.519Z,16.30
2022-09-02T01:57:19.859Z,16.30
2022-09-02T01:58:23.928Z,16.30
2022-09-02T01:59:27.231Z,16.30
2022-09-02T02:00:31.192Z,16.30
2022-09-02T02:01:33.773Z,16.20
2022-09-02T02:02:37.855Z,16.30
2022-09-02T02:03:40.591Z,16.20
2022-09-02T02:04:44.018Z,16.20
2022-09-02T02:05:47.037Z,16.20
2022-09-02T02:06:53.647Z,16.20
2022-09-02T02:07:57.838Z,16.20
2022-09-02T02:09:02.731Z,16.20
2022-09-02T02:10:08.534Z,16.20
2022-09-02T02:11:13.590Z,16.20
2022-09-02T02:12:18.595Z,16.10
2022-09-02T02:13:22.241Z,16.10
2022-09-02T02:14:24.811Z,16.10
2022-09-02T02:16:32.003Z,16.10
2022-09-02T02:17:35.823Z,16.10
2022-09-02T02:18:40.871Z,16.10
2022-09-02T02:19:45.176Z,16.00
2022-09-02T02:20:47.628Z,16.00
2022-09-02T02:21:53.377Z,16.00
2022-09-02T02:22:58.400Z,16.00
2022-09-02T02:24:03.927Z,16.00
2022-09-02T02:25:08.644Z,16.00
2022-09-02T02:26:12.170Z,16.00
2022-09-02T02:27:14.890Z,16.00
2022-09-02T02:28:18.482Z,16.00
2022-09-02T02:29:22.508Z,16.00
2022-09-02T02:30:26.179Z,15.90
2022-09-02T02:31:29.520Z,15.90
2022-09-02T02:32:33.694Z,15.90
2022-09-02T02:33:38.421Z,15.90
2022-09-02T02:34:43.518Z,15.90
2022-09-02T02:35:50.121Z,15.90
2022-09-02T02:36:53.304Z,15.90
2022-09-02T02:37:57.995Z,15.90
2022-09-02T02:39:09.517Z,15.90
2022-09-02T02:40:14.840Z,15.90
2022-09-02T02:41:17.557Z,15.90
2022-09-02T02:42:21.864Z,15.80
2022-09-02T02:43:27.598Z,15.90
2022-09-02T02:44:31.597Z,15.80
2022-09-02T02:45:34.620Z,15.80
2022-09-02T02:46:38.437Z,15.80
2022-09-02T02:47:42.817Z,15.80
2022-09-02T02:48:46.525Z,15.80
2022-09-02T02:49:49.074Z,15.80
2022-09-02T02:50:53.617Z,15.80
2022-09-02T02:51:56.253Z,15.80
2022-09-02T02:53:02.807Z,15.80
2022-09-02T02:54:07.483Z,15.80
2022-09-02T02:55:13.365Z,15.80
2022-09-02T02:56:16.487Z,15.80
2022-09-02T02:57:22.289Z,15.80
2022-09-02T02:58:26.610Z,15.70
2022-09-02T02:59:32.040Z,15.70
2022-09-02T03:00:36.318Z,15.70
2022-09-02T03:01:40.798Z,15.70
2022-09-02T03:02:44.468Z,15.70
2022-09-02T03:03:48.063Z,15.70
2022-09-02T03:04:54.280Z,15.70
2022-09-02T03:05:58.318Z,15.70
2022-09-02T03:07:03.194Z,15.70
2022-09-02T03:08:08.309Z,15.70
2022-09-02T03:09:12.547Z,15.70
2022-09-02T03:10:16.304Z,15.60
2022-09-02T03:11:22.549Z,15.70
2022-09-02T03:12:27.788Z,15.60
2022-09-02T03:13:31.987Z,15.60
2022-09-02T03:14:38.824Z,15.70
2022-09-02T03:15:42.627Z,15.60
2022-09-02T03:16:46.775Z,15.60
2022-09-02T03:17:49.460Z,15.60
2022-09-02T03:18:53.767Z,15.60
2022-09-02T03:19:57.811Z,15.60
2022-09-02T03:21:02.293Z,15.60
2022-09-02T03:22:05.654Z,15.60
2022-09-02T03:23:10.127Z,15.50
2022-09-02T03:24:14.414Z,15.60
2022-09-02T03:25:21.739Z,15.50
2022-09-02T03:26:25.935Z,15.50
2022-09-02T03:27:29.867Z,15.50
2022-09-02T03:28:33.693Z,15.50
2022-09-02T03:29:39.001Z,15.50
2022-09-02T03:30:42.803Z,15.50
2022-09-02T03:31:46.659Z,15.50
2022-09-02T03:32:50.852Z,15.50
2022-09-02T03:33:54.563Z,15.50
2022-09-02T03:34:58.572Z,15.50
2022-09-02T03:36:02.192Z,15.40
2022-09-02T03:37:05.847Z,15.40
2022-09-02T03:38:09.486Z,15.40
2022-09-02T03:39:15.824Z,15.40
2022-09-02T03:40:23.672Z,15.40
2022-09-02T03:41:29.582Z,15.40
2022-09-02T03:42:34.217Z,15.40
2022-09-02T03:43:36.822Z,15.40
2022-09-02T03:44:41.216Z,15.30
2022-09-02T03:45:44.121Z,15.30
2022-09-02T03:46:50.428Z,15.30
2022-09-02T03:47:54.264Z,15.30
2022-09-02T03:49:02.539Z,15.30
2022-09-02T03:50:06.907Z,15.30
2022-09-02T03:51:10.773Z,15.30
2022-09-02T03:52:13.507Z,15.30
2022-09-02T03:54:27.932Z,15.20
2022-09-02T03:55:33.810Z,15.20
2022-09-02T03:56:38.432Z,15.20
2022-09-02T03:57:43.365Z,15.20
2022-09-02T03:58:50.499Z,15.20
2022-09-02T03:59:55.795Z,15.20
2022-09-02T04:00:59.351Z,15.20
2022-09-02T04:02:03.295Z,15.20
2022-09-02T04:03:07.777Z,15.10
2022-09-02T04:04:10.448Z,15.10
2022-09-02T04:05:16.023Z,15.10
2022-09-02T04:06:21.296Z,15.10
2022-09-02T04:07:25.620Z,15.10
2022-09-02T04:08:28.223Z,15.10
2022-09-02T04:09:36.276Z,15.10
2022-09-02T04:10:38.844Z,15.10
2022-09-02T04:11:43.411Z,15.10
2022-09-02T04:12:47.829Z,15.10
2022-09-02T04:13:54.230Z,15.10
2022-09-02T04:14:59.627Z,15.10
2022-09-02T04:16:10.610Z,15.10
2022-09-02T04:17:13.543Z,15.00
2022-09-02T04:18:18.758Z,15.00
2022-09-02T04:19:21.248Z,15.00
2022-09-02T04:20:27.005Z,15.00
2022-09-02T04:21:33.933Z,15.00
2022-09-02T04:22:38.620Z,15.00
2022-09-02T04:23:41.184Z,15.00
2022-09-02T04:24:46.136Z,15.00
2022-09-02T04:25:48.715Z,15.00
2022-09-02T04:26:53.711Z,15.00
2022-09-02T04:27:56.290Z,15.00
2022-09-02T04:29:02.635Z,14.90
2022-09-02T04:30:10.922Z,14.90
2022-09-02T04:31:20.546Z,14.90
2022-09-02T04:32:26.667Z,14.90
2022-09-02T04:33:32.672Z,14.90
2022-09-02T04:34:35.212Z,14.90
2022-09-02T04:35:42.658Z,14.90
2022-09-02T04:36:45.751Z,14.90
2022-09-02T04:37:49.923Z,14.90
2022-09-02T04:38:54.350Z,14.90
2022-09-02T04:40:03.132Z,14.90
2022-09-02T04:41:08.304Z,14.80
2022-09-02T04:42:12.241Z,14.80
2022-09-02T04:43:15.538Z,14.80
2022-09-02T04:44:19.615Z,14.80
2022-09-02T04:45:27.781Z,14.80
2022-09-02T04:46:34.697Z,14.80
2022-09-02T04:47:40.179Z,14.80
2022-09-02T04:48:46.181Z,14.80
2022-09-02T04:49:50.803Z,14.80
2022-09-02T04:50:55.385Z,14.80
2022-09-02T04:51:58.171Z,14.80
2022-09-02T04:53:02.769Z,14.80
2022-09-02T04:54:08.032Z,14.80
2022-09-02T04:55:13.431Z,14.80
2022-09-02T04:56:21.476Z,14.80
2022-09-02T04:57:24.408Z,14.80
2022-09-02T04:58:28.757Z,14.80
2022-09-02T04:59:31.508Z,14.80
2022-09-02T05:00:43.088Z,14.80
2022-09-02T05:01:48.482Z,14.80
2022-09-02T05:02:56.883Z,14.80
2022-09-02T05:04:09.774Z,14.90
2022-09-02T05:05:16.582Z,14.80
2022-09-02T05:06:22.801Z,14.90
2022-09-02T05:07:25.805Z,14.90
2022-09-02T05:08:29.632Z,14.90
2022-09-02T05:09:33.104Z,14.90
2022-09-02T05:10:41.382Z,14.90
2022-09-02T05:11:44.348Z,14.90
2022-09-02T05:12:48.237Z,14.90
2022-09-02T05:13:52.325Z,14.90
2022-09-02T05:15:01.117Z,15.00
2022-09-02T05:16:08.059Z,15.00
2022-09-02T05:17:14.237Z,15.00
2022-09-02T05:18:19.146Z,15.00
2022-09-02T05:19:24.155Z,15.00
2022-09-02T05:20:28.608Z,15.00
2022-09-02T05:21:34.272Z,15.10
2022-09-02T05:22:39.244Z,15.10
2022-09-02T05:23:43.977Z,15.10
2022-09-02T05:24:49.768Z,15.20
2022-09-02T05:26:05.806Z,15.20
2022-09-02T05:27:09.571Z,15.20
2022-09-02T05:28:41.645Z,15.30
2022-09-02T05:29:45.547Z,15.30
2022-09-02T05:30:51.650Z,15.30
2022-09-02T05:31:54.502Z,15.40
2022-09-02T05:32:59.703Z,15.40
2022-09-02T05:34:02.711Z,15.50
2022-09-02T05:35:07.318Z,15.50
2022-09-02T05:36:14.946Z,15.50
2022-09-02T05:37:18.915Z,15.60
2022-09-02T05:38:22.329Z,15.60
2022-09-02T05:39:27.123Z,15.70
2022-09-02T05:40:30.387Z,15.90
2022-09-02T05:41:37.044Z,15.90
2022-09-02T05:42:41.493Z,16.00
2022-09-02T05:43:46.489Z,16.20
2022-09-02T05:44:49.477Z,16.30
2022-09-02T05:45:56.879Z,16.30
2022-09-02T05:46:59.732Z,16.40
2022-09-02T05:48:24.582Z,16.50
2022-09-02T05:49:27.534Z,16.50
2022-09-02T05:50:40.999Z,16.60
2022-09-02T05:51:46.667Z,16.60
2022-09-02T05:52:53.386Z,16.60
2022-09-02T05:54:00.450Z,16.70
2022-09-02T05:55:07.642Z,16.70
2022-09-02T05:56:14.397Z,16.70
2022-09-02T05:57:22.837Z,16.70
2022-09-02T05:58:38.031Z,16.70
2022-09-02T05:59:43.474Z,16.80
2022-09-02T06:00:49.630Z,16.80
2022-09-02T06:01:54.188Z,16.80
2022-09-02T06:02:57.027Z,16.80
2022-09-02T06:04:07.068Z,16.80
2022-09-02T06:05:12.314Z,16.90
2022-09-02T06:06:23.043Z,16.90
2022-09-02T06:07:26.571Z,16.90
2022-09-02T06:08:33.201Z,16.90
2022-09-02T06:09:37.029Z,17.00
2022-09-02T06:10:44.939Z,17.00
2022-09-02T06:11:52.626Z,17.00
2022-09-02T06:13:02.145Z,17.00
2022-09-02T06:14:08.414Z,17.10
2022-09-02T06:15:15.090Z,17.10
2022-09-02T06:16:23.284Z,17.20
2022-09-02T06:17:27.474Z,17.30
2022-09-02T06:18:33.696Z,17.40
2022-09-02T06:19:36.817Z,17.40
2022-09-02T06:20:41.808Z,17.50
2022-09-02T06:21:44.839Z,17.60
2022-09-02T06:22:48.817Z,17.60
2022-09-02T06:23:53.988Z,17.70
2022-09-02T06:24:57.524Z,17.80
2022-09-02T06:26:02.610Z,17.80
2022-09-02T06:27:07.396Z,17.90
2022-09-02T06:28:15.557Z,18.00
2022-09-02T06:29:22.553Z,18.10
2022-09-02T06:30:25.138Z,18.20
2022-09-02T06:31:28.894Z,18.30
2022-09-02T06:32:38.172Z,18.40
2022-09-02T06:33:48.442Z,18.50
2022-09-02T06:34:53.344Z,18.70
2022-09-02T06:35:58.459Z,19.00
2022-09-02T06:37:02.474Z,19.30
2022-09-02T06:38:08.811Z,19.50
2022-09-02T06:39:16.233Z,19.80
2022-09-02T06:40:20.238Z,20.10
2022-09-02T06:41:28.712Z,20.40
2022-09-02T06:42:35.700Z,20.60
2022-09-02T06:43:48.593Z,20.80
2022-09-02T06:44:57.358Z,21.10
2022-09-02T06:46:01.495Z,21.30
2022-09-02T06:47:06.817Z,21.50
2022-09-02T06:48:10.512Z,21.70
2022-09-02T06:49:17.881Z,21.90
2022-09-02T06:50:23.916Z,22.10
2022-09-02T06:51:29.766Z,22.30
2022-09-02T06:52:35.084Z,22.40
2022-09-02T06:53:40.433Z,22.60
2022-09-02T06:54:47.461Z,22.80
2022-09-02T06:55:51.969Z,22.90
2022-09-02T06:56:56.132Z,22.90
2022-09-02T06:58:01.392Z,23.00
2022-09-02T06:59:09.143Z,23.10
2022-09-02T07:00:26.178Z,23.20
2022-09-02T07:01:34.426Z,23.30
2022-09-02T07:02:38.412Z,23.30
2022-09-02T07:04:00.091Z,23.40
2022-09-02T07:05:15.445Z,23.40
2022-09-02T07:06:21.426Z,23.50
2022-09-02T07:07:27.348Z,23.60
2022-09-02T07:08:38.347Z,23.70
2022-09-02T07:09:42.240Z,23.80
2022-09-02T07:10:52.067Z,23.90
2022-09-02T07:11:59.828Z,24.00
2022-09-02T07:13:07.449Z,24.10
2022-09-02T07:14:12.882Z,24.20
2022-09-02T07:15:15.776Z,24.30
2022-09-02T07:16:26.948Z,24.40
2022-09-02T07:17:32.786Z,24.50
2022-09-02T07:18:39.166Z,24.70
2022-09-02T07:19:43.292Z,24.80
2022-09-02T07:20:48.110Z,24.80
2022-09-02T07:21:52.531Z,24.90
2022-09-02T07:22:57.439Z,25.00
2022-09-02T07:24:04.360Z,25.00
2022-09-02T07:25:10.909Z,25.10
2022-09-02T07:26:15.978Z,25.20
2022-09-02T07:27:22.106Z,25.30
2022-09-02T07:28:27.537Z,25.50
2022-09-02T07:29:32.747Z,25.70
2022-09-02T07:30:36.946Z,25.90
2022-09-02T07:31:48.929Z,26.10
2022-09-02T07:32:54.151Z,26.30
2022-09-02T07:34:00.084Z,26.50
2022-09-02T07:35:06.365Z,26.70
2022-09-02T07:36:12.530Z,26.80
2022-09-02T07:38:21.765Z,27.10
2022-09-02T07:39:25.518Z,27.20
2022-09-02T07:40:30.188Z,27.40
2022-09-02T07:41:34.016Z,27.60
2022-09-02T07:42:37.953Z,27.70
2022-09-02T07:43:48.372Z,27.90
2022-09-02T07:44:55.428Z,28.20
2022-09-02T07:46:00.765Z,28.40
2022-09-02T07:47:06.818Z,28.70
2022-09-02T07:48:11.922Z,29.00
2022-09-02T07:49:18.907Z,29.20
2022-09-02T07:50:27.220Z,29.50
2022-09-02T07:51:32.093Z,29.80
2022-09-02T07:52:38.144Z,30.00
2022-09-02T07:53:43.637Z,30.20
2022-09-02T07:54:46.543Z,30.50
2022-09-02T07:55:50.995Z,30.70
2022-09-02T07:56:55.837Z,31.00
2022-09-02T07:57:59.269Z,31.30
2022-09-02T07:59:03.879Z,31.60
2022-09-02T08:00:11.768Z,31.90
2022-09-02T08:01:22.728Z,32.10
2022-09-02T08:02:27.208Z,32.40
2022-09-02T08:03:32.063Z,32.70
2022-09-02T08:04:35.138Z,32.80
2022-09-02T08:05:45.084Z,33.00
2022-09-02T08:06:47.888Z,33.30
2022-09-02T08:07:51.620Z,33.40
2022-09-02T08:08:56.071Z,33.50
2022-09-02T08:10:01.680Z,33.60
2022-09-02T08:11:07.332Z,33.60
2022-09-02T08:12:11.669Z,33.70
2022-09-02T08:13:17.629Z,33.80
2022-09-02T08:14:26.099Z,33.90
2022-09-02T08:15:31.328Z,34.00
2022-09-02T08:16:35.446Z,34.10
2022-09-02T08:17:40.791Z,34.10
2022-09-02T08:18:44.449Z,34.00
2022-09-02T08:19:47.097Z,33.90
2022-09-02T08:20:50.870Z,33.80
2022-09-02T08:21:55.391Z,33.60
2022-09-02T08:23:10.691Z,33.50
2022-09-02T08:24:21.978Z,33.30
2022-09-02T08:25:24.887Z,33.00
2022-09-02T08:26:28.877Z,32.90
2022-09-02T08:27:32.357Z,32.70
2022-09-02T08:28:36.303Z,32.60
2022-09-02T08:29:39.001Z,32.50
2022-09-02T08:30:44.351Z,32.40
2022-09-02T08:31:48.612Z,32.30
2022-09-02T08:32:54.496Z,32.20
2022-09-02T08:33:57.292Z,32.10
2022-09-02T08:35:02.979Z,32.10
2022-09-02T08:36:08.459Z,32.00
2022-09-02T08:37:13.252Z,32.00
2022-09-02T08:38:16.838Z,32.00
2022-09-02T08:39:20.501Z,32.10
2022-09-02T08:40:27.979Z,32.10
2022-09-02T08:41:43.307Z,32.20
2022-09-02T08:42:51.656Z,32.30
2022-09-02T08:43:59.800Z,32.40
2022-09-02T08:45:13.382Z,32.50
2022-09-02T08:46:26.008Z,32.50
2022-09-02T08:47:33.482Z,32.60
2022-09-02T08:48:42.400Z,32.60
2022-09-02T08:49:48.641Z,32.60
2022-09-02T08:50:58.469Z,32.60
2022-09-02T08:52:05.103Z,32.60
2022-09-02T08:53:17.503Z,32.70
2022-09-02T08:54:32.510Z,32.80
2022-09-02T08:55:44.713Z,33.00
2022-09-02T08:56:51.704Z,33.10
2022-09-02T08:57:56.697Z,33.30
2022-09-02T08:59:02.271Z,33.40
2022-09-02T09:00:07.467Z,33.60
2022-09-02T09:01:24.791Z,33.70
2022-09-02T09:02:45.928Z,33.80
2022-09-02T09:04:09.202Z,33.90
2022-09-02T09:05:24.885Z,34.10
2022-09-02T09:06:39.938Z,34.20
2022-09-02T09:08:04.997Z,34.40
2022-09-02T09:09:20.555Z,34.50
2022-09-02T09:10:31.081Z,34.70
2022-09-02T09:11:44.901Z,34.70
2022-09-02T09:13:22.181Z,34.90
2022-09-02T09:14:34.594Z,35.00
2022-09-02T09:15:49.791Z,35.20
2022-09-02T09:17:00.783Z,35.30
2022-09-02T09:18:07.692Z,35.40
2022-09-02T09:19:15.726Z,35.40
2022-09-02T09:20:23.329Z,35.40
2022-09-02T09:21:26.876Z,35.50
2022-09-02T09:22:37.429Z,35.60
2022-09-02T09:23:42.210Z,35.60
2022-09-02T09:24:49.957Z,35.60
2022-09-02T09:26:01.448Z,35.70
2022-09-02T09:27:11.200Z,35.70
2022-09-02T09:28:13.954Z,35.80
2022-09-02T09:29:26.965Z,35.80
2022-09-02T09:30:31.391Z,35.70
2022-09-02T09:31:36.131Z,35.70
2022-09-02T09:32:47.499Z,35.80
2022-09-02T09:33:58.982Z,35.90
2022-09-02T09:35:07.943Z,35.90
2022-09-02T09:36:13.522Z,36.10
2022-09-02T09:37:35.756Z,36.20
2022-09-02T09:38:38.994Z,36.40
2022-09-02T09:39:42.711Z,36.50
2022-09-02T09:40:45.564Z,36.60
2022-09-02T09:41:50.764Z,36.70
2022-09-02T09:42:57.977Z,36.80
2022-09-02T09:44:01.558Z,36.90
2022-09-02T09:45:20.346Z,37.00
2022-09-02T09:46:31.021Z,37.20
2022-09-02T09:47:33.844Z,37.40
2022-09-02T09:48:51.652Z,37.50
2022-09-02T09:50:10.470Z,37.70
2022-09-02T09:51:17.184Z,37.90
2022-09-02T09:52:29.345Z,38.20
2022-09-02T09:53:34.343Z,38.30
2022-09-02T09:54:38.088Z,38.50
2022-09-02T09:55:54.506Z,38.70
2022-09-02T09:57:15.026Z,38.90
2022-09-02T09:58:19.808Z,39.10
2022-09-02T09:59:42.477Z,39.30
2022-09-02T10:00:48.562Z,39.50
2022-09-02T10:01:52.188Z,39.70
2022-09-02T10:03:00.304Z,39.90
2022-09-02T10:04:32.328Z,40.00
2022-09-02T10:05:36.004Z,40.10
2022-09-02T10:06:43.279Z,40.40
2022-09-02T10:07:55.745Z,40.50
2022-09-02T10:09:04.634Z,40.60
2022-09-02T10:10:17.324Z,40.60
2022-09-02T10:11:26.053Z,40.60
2022-09-02T10:12:32.996Z,40.50
2022-09-02T10:13:39.131Z,40.50
2022-09-02T10:14:45.914Z,40.40
2022-09-02T10:16:15.233Z,40.30
2022-09-02T10:17:33.120Z,40.30
2022-09-02T10:18:40.572Z,40.30
2022-09-02T10:19:54.058Z,40.30
2022-09-02T10:21:14.866Z,40.40
2022-09-02T10:23:07.601Z,40.40
2022-09-02T10:24:27.153Z,40.40
2022-09-02T10:25:42.749Z,40.30
2022-09-02T10:26:53.070Z,40.30
2022-09-02T10:28:05.073Z,40.30
2022-09-02T10:29:54.430Z,40.40
2022-09-02T10:31:14.199Z,40.50
2022-09-02T10:32:34.724Z,40.70
2022-09-02T10:33:58.436Z,40.90
2022-09-02T10:35:12.989Z,41.00
2022-09-02T10:36:28.798Z,41.20
2022-09-02T10:37:51.305Z,41.40
2022-09-02T10:38:59.819Z,41.50
2022-09-02T10:40:10.648Z,41.60
2022-09-02T10:41:32.723Z,41.60
2022-09-02T10:42:47.180Z,41.70
2022-09-02T10:44:26.969Z,41.80
2022-09-02T10:45:38.054Z,41.80
2022-09-02T10:47:00.224Z,41.70
2022-09-02T10:48:27.695Z,41.70
2022-09-02T10:50:03.737Z,41.60
2022-09-02T10:51:17.901Z,41.50
2022-09-02T10:52:45.451Z,41.50
2022-09-02T10:54:09.684Z,41.60
2022-09-02T10:55:26.424Z,41.60
2022-09-02T10:56:35.735Z,41.70
2022-09-02T10:57:49.816Z,41.70
2022-09-02T10:59:03.353Z,41.80
2022-09-02T11:00:13.299Z,41.80
2022-09-02T11:01:23.562Z,41.70
2022-09-02T11:02:33.007Z,41.70
2022-09-02T11:03:46.587Z,41.60
2022-09-02T11:05:00.083Z,41.50
2022-09-02T11:06:11.094Z,41.40
2022-09-02T11:07:21.473Z,41.30
2022-09-02T11:08:34.590Z,41.20
2022-09-02T11:09:42.664Z,41.10
2022-09-02T11:11:01.705Z,41.00
2022-09-02T11:12:12.029Z,40.80
2022-09-02T11:13:21.421Z,40.70
2022-09-02T11:14:30.547Z,40.60
2022-09-02T11:15:50.244Z,40.60
2022-09-02T11:17:02.778Z,40.50
2022-09-02T11:18:18.060Z,40.50
2022-09-02T11:19:31.224Z,40.50
2022-09-02T11:20:42.807Z,40.50
2022-09-02T11:22:00.066Z,40.40
2022-09-02T11:23:17.920Z,40.30
2022-09-02T11:24:29.178Z,40.20
2022-09-02T11:25:40.139Z,40.20
2022-09-02T11:26:52.340Z,40.10
2022-09-02T11:28:07.342Z,40.00
2022-09-02T11:29:27.866Z,40.00
2022-09-02T11:30:41.753Z,40.00
2022-09-02T11:31:50.068Z,39.90
2022-09-02T11:33:02.300Z,39.90
2022-09-02T11:34:19.841Z,39.80
2022-09-02T11:35:27.901Z,39.70
2022-09-02T11:36:33.268Z,39.70
2022-09-02T11:37:45.093Z,39.60
2022-09-02T11:38:54.116Z,39.50
2022-09-02T11:40:23.381Z,39.50
2022-09-02T11:41:41.269Z,39.40
2022-09-02T11:43:03.995Z,39.40
2022-09-02T11:44:33.664Z,39.30
2022-09-02T11:46:04.883Z,39.10
2022-09-02T11:47:37.733Z,38.90
2022-09-02T11:49:32.423Z,38.80
2022-09-02T11:51:00.547Z,38.70
2022-09-02T11:52:26.250Z,38.70
2022-09-02T11:53:37.762Z,38.70
2022-09-02T11:54:44.624Z,38.70
2022-09-02T11:55:53.986Z,38.60
2022-09-02T11:57:02.781Z,38.60
2022-09-02T11:58:06.492Z,38.50
2022-09-02T11:59:20.890Z,38.50
2022-09-02T12:01:07.622Z,38.40
2022-09-02T12:02:40.375Z,38.40
2022-09-02T12:04:16.209Z,38.20
2022-09-02T12:05:49.432Z,38.20
2022-09-02T12:07:33.883Z,38.00
2022-09-02T12:09:12.182Z,37.90
2022-09-02T12:11:04.895Z,37.80
2022-09-02T12:12:08.596Z,37.80
2022-09-02T12:13:36.933Z,37.70
2022-09-02T12:15:15.052Z,37.60
2022-09-02T12:17:00.787Z,37.50
2022-09-02T12:18:31.049Z,37.40
2022-09-02T12:19:45.945Z,37.30
2022-09-02T12:21:11.131Z,37.20
2022-09-02T12:22:42.626Z,37.10
2022-09-02T12:24:11.763Z,37.10
2022-09-02T12:25:44.407Z,37.00
2022-09-02T12:27:08.120Z,37.00
2022-09-02T12:28:28.014Z,36.90
2022-09-02T12:29:35.068Z,36.80
2022-09-02T12:31:40.746Z,36.60
2022-09-02T12:33:13.545Z,36.40
2022-09-02T12:34:53.680Z,36.10
2022-09-02T12:35:59.647Z,36.00
2022-09-02T12:37:02.832Z,36.00
2022-09-02T12:38:32.708Z,36.10
2022-09-02T12:39:55.472Z,36.10
2022-09-02T12:41:22.139Z,36.20
2022-09-02T12:42:31.704Z,36.20
2022-09-02T12:43:47.391Z,36.20
2022-09-02T12:45:03.003Z,36.30
2022-09-02T12:46:19.537Z,36.30
2022-09-02T12:47:39.031Z,36.30
2022-09-02T12:48:51.045Z,36.30
2022-09-02T12:50:05.985Z,36.40
2022-09-02T12:51:10.304Z,36.40
2022-09-02T12:52:42.453Z,36.50
2022-09-02T12:53:51.407Z,36.60
2022-09-02T12:54:56.279Z,36.50
2022-09-02T12:56:04.342Z,36.50
2022-09-02T12:57:09.129Z,36.40
2022-09-02T12:58:15.559Z,36.20
2022-09-02T12:59:31.930Z,35.90
2022-09-02T13:00:45.861Z,35.60
2022-09-02T13:02:02.452Z,35.40
2022-09-02T13:03:32.110Z,35.00
2022-09-02T13:04:44.094Z,34.70
2022-09-02T13:05:56.304Z,34.40
2022-09-02T13:07:48.998Z,34.20
2022-09-02T13:09:30.881Z,34.20
2022-09-02T13:11:11.676Z,34.10
2022-09-02T13:12:52.275Z,34.20
2022-09-02T13:14:36.903Z,34.20
2022-09-02T13:16:19.040Z,34.30
2022-09-02T13:17:51.284Z,34.30
2022-09-02T13:19:43.859Z,34.40
2022-09-02T13:21:21.106Z,34.40
2022-09-02T13:22:53.057Z,34.40
2022-09-02T13:24:48.149Z,34.50
2022-09-02T13:26:45.858Z,34.50
2022-09-02T13:28:26.245Z,34.50
2022-09-02T13:30:18.100Z,34.40
2022-09-02T13:31:25.186Z,34.40
2022-09-02T13:32:32.690Z,34.30
2022-09-02T13:33:44.370Z,34.20
2022-09-02T13:34:51.014Z,34.20
2022-09-02T13:35:58.898Z,34.10
2022-09-02T13:37:01.400Z,34.10
2022-09-02T13:39:16.118Z,34.00
2022-09-02T13:40:26.826Z,33.90
2022-09-02T13:41:33.736Z,33.90
2022-09-02T13:42:39.417Z,33.90
2022-09-02T13:43:42.889Z,33.90
2022-09-02T13:44:45.706Z,33.90
2022-09-02T13:45:51.629Z,34.00
2022-09-02T13:47:04.422Z,34.00
2022-09-02T13:48:12.058Z,34.00
2022-09-02T13:49:27.577Z,34.00
2022-09-02T13:50:33.088Z,34.00
2022-09-02T13:51:35.633Z,34.00
2022-09-02T13:54:22.523Z,34.00
2022-09-02T13:55:28.619Z,34.00
2022-09-02T13:56:32.628Z,34.00
2022-09-02T13:57:38.582Z,34.00
2022-09-02T13:58:46.805Z,34.00
2022-09-02T13:59:52.934Z,34.00
2022-09-02T14:01:02.117Z,34.00
2022-09-02T14:02:35.722Z,33.90
2022-09-02T14:03:39.249Z,33.80
2022-09-02T14:04:42.850Z,33.80
2022-09-02T14:05:49.378Z,33.70
2022-09-02T14:06:54.585Z,33.70
2022-09-02T14:08:04.078Z,33.60
2022-09-02T14:09:19.570Z,33.60
2022-09-02T14:10:28.183Z,33.50
2022-09-02T14:11:39.348Z,33.50
2022-09-02T14:12:44.661Z,33.40
2022-09-02T14:13:51.109Z,33.30
2022-09-02T14:14:55.703Z,33.30
2022-09-02T14:16:33.568Z,33.30
2022-09-02T14:17:36.560Z,33.20
2022-09-02T14:18:40.178Z,33.20
2022-09-02T14:19:42.788Z,33.10
2022-09-02T14:21:01.755Z,33.10
2022-09-02T14:22:04.353Z,33.00
2022-09-02T14:23:09.010Z,32.90
2022-09-02T14:24:13.887Z,32.80
2022-09-02T14:25:18.921Z,32.70
2022-09-02T14:26:31.794Z,32.60
2022-09-02T14:27:36.776Z,32.50
2022-09-02T14:28:40.255Z,32.40
2022-09-02T14:29:48.319Z,32.30
2022-09-02T14:31:02.595Z,32.20
2022-09-02T14:32:13.640Z,32.00
2022-09-02T14:33:43.119Z,31.90
2022-09-02T14:34:47.470Z,31.80
2022-09-02T14:36:02.104Z,31.70
2022-09-02T14:37:22.726Z,31.60
2022-09-02T14:38:28.586Z,31.50
2022-09-02T14:39:31.137Z,31.40
2022-09-02T14:40:37.926Z,31.40
2022-09-02T14:41:47.435Z,31.30
2022-09-02T14:42:57.856Z,31.20
2022-09-02T14:44:19.514Z,31.10
2022-09-02T14:45:29.123Z,31.00
2022-09-02T14:46:36.848Z,31.00
2022-09-02T14:47:40.491Z,30.90
2022-09-02T14:48:53.030Z,30.80
2022-09-02T14:49:57.831Z,30.80
2022-09-02T14:51:04.414Z,30.70
2022-09-02T14:52:19.977Z,30.60
2022-09-02T14:53:23.478Z,30.50
2022-09-02T14:54:39.777Z,30.50
2022-09-02T14:55:52.582Z,30.40
2022-09-02T14:56:56.342Z,30.30
2022-09-02T14:58:03.610Z,30.20
2022-09-02T14:59:07.191Z,30.20
2022-09-02T15:00:14.459Z,30.20